createdAt,value
2023-04-28T00:02:25.950Z,101376.88
2023-04-28T00:04:54.652Z,101379.34
2023-04-28T00:07:22.651Z,101366.97
2023-04-28T00:09:50.522Z,101363.31
2023-04-28T00:12:18.451Z,101360.56
2023-04-28T00:14:46.340Z,101358.00
2023-04-28T00:17:14.268Z,101353.63
2023-04-28T00:19:42.243Z,101356.84
2023-04-28T00:22:10.093Z,101348.06
2023-04-28T00:24:38.045Z,101356.50
2023-04-28T00:27:05.531Z,101343.56
2023-04-28T00:29:33.488Z,101341.72
2023-04-28T00:32:01.119Z,101343.31
2023-04-28T00:34:30.250Z,101345.88
2023-04-28T00:36:58.911Z,101340.59
2023-04-28T00:39:27.837Z,101333.72
2023-04-28T00:41:55.531Z,101340.47
2023-04-28T00:44:23.431Z,101337.00
2023-04-28T00:46:51.060Z,101345.63
2023-04-28T00:49:18.927Z,101345.50
2023-04-28T00:51:46.420Z,101354.19
2023-04-28T00:54:15.002Z,101352.38
2023-04-28T00:56:42.234Z,101350.59
2023-04-28T00:59:10.061Z,101351.47
2023-04-28T01:01:38.449Z,101345.47
2023-04-28T01:04:07.010Z,101345.34
2023-04-28T01:06:34.649Z,101345.41
2023-04-28T01:09:02.573Z,101348.88
2023-04-28T01:11:30.403Z,101357.31
2023-04-28T01:13:59.537Z,101343.59
2023-04-28T01:16:28.254Z,101343.84
2023-04-28T01:18:55.836Z,101342.16
2023-04-28T01:21:51.964Z,101347.53
2023-04-28T01:24:19.917Z,101344.94
2023-04-28T01:26:47.468Z,101340.53
2023-04-28T01:29:15.355Z,101343.13
2023-04-28T01:31:43.390Z,101343.19
2023-04-28T01:34:11.078Z,101348.34
2023-04-28T01:36:39.113Z,101347.53
2023-04-28T01:39:06.034Z,101351.78
2023-04-28T01:41:36.804Z,101352.53
2023-04-28T01:44:06.159Z,101359.41
2023-04-28T01:46:38.256Z,101355.09
2023-04-28T01:49:06.085Z,101358.41
2023-04-28T01:51:33.692Z,101365.91
2023-04-28T01:54:01.586Z,101361.72
2023-04-28T01:56:29.472Z,101375.16
2023-04-28T01:58:57.287Z,101375.06
2023-04-28T02:01:25.179Z,101387.13
2023-04-28T02:03:53.025Z,101389.44
2023-04-28T02:06:21.090Z,101392.47
2023-04-28T02:08:48.994Z,101386.78
2023-04-28T02:11:16.448Z,101383.13
2023-04-28T02:13:49.295Z,101398.34
2023-04-28T02:16:18.118Z,101396.38
2023-04-28T02:18:45.649Z,101389.13
2023-04-28T02:21:13.561Z,101394.75
2023-04-28T02:23:40.974Z,101387.56
2023-04-28T02:26:08.750Z,101378.22
2023-04-28T02:28:36.154Z,101380.56
2023-04-28T02:31:07.978Z,101371.72
2023-04-28T02:33:35.776Z,101370.84
2023-04-28T02:36:04.300Z,101376.00
2023-04-28T02:38:31.964Z,101380.16
2023-04-28T02:41:05.426Z,101382.13
2023-04-28T02:43:33.407Z,101382.53
2023-04-28T02:46:00.506Z,101383.41
2023-04-28T02:48:28.439Z,101379.19
2023-04-28T02:50:56.120Z,101374.72
2023-04-28T02:53:23.204Z,101363.94
2023-04-28T02:55:51.072Z,101374.41
2023-04-28T02:58:18.932Z,101380.13
2023-04-28T03:00:47.046Z,101380.56
2023-04-28T03:03:14.739Z,101382.09
2023-04-28T03:05:42.813Z,101388.63
2023-04-28T03:08:10.763Z,101392.34
2023-04-28T03:10:38.339Z,101383.69
2023-04-28T03:13:06.245Z,101388.81
2023-04-28T03:15:34.125Z,101395.09
2023-04-28T03:18:04.070Z,101399.38
2023-04-28T03:20:31.653Z,101399.84
2023-04-28T03:22:59.483Z,101399.34
2023-04-28T03:25:27.342Z,101410.38
2023-04-28T03:27:54.798Z,101417.31
2023-04-28T03:30:23.552Z,101404.16
2023-04-28T03:32:51.196Z,101404.97
2023-04-28T03:35:19.493Z,101391.44
2023-04-28T03:37:47.311Z,101376.50
2023-04-28T03:40:14.691Z,101377.63
2023-04-28T03:42:42.543Z,101374.56
2023-04-28T03:45:12.039Z,101373.19
2023-04-28T03:47:39.807Z,101370.56
2023-04-28T03:50:08.777Z,101374.50
2023-04-28T03:52:36.855Z,101377.00
2023-04-28T03:55:05.198Z,101378.88
2023-04-28T03:57:33.067Z,101371.84
2023-04-28T04:00:00.929Z,101374.56
2023-04-28T04:02:28.910Z,101379.66
2023-04-28T04:04:57.204Z,101383.09
2023-04-28T04:07:25.360Z,101377.41
2023-04-28T04:09:53.609Z,101386.88
2023-04-28T04:12:21.453Z,101381.78
2023-04-28T04:14:48.856Z,101388.75
2023-04-28T04:17:16.686Z,101388.75
2023-04-28T04:19:44.409Z,101388.97
2023-04-28T04:22:12.121Z,101390.69
2023-04-28T04:24:39.690Z,101397.56
2023-04-28T04:27:07.254Z,101399.63
2023-04-28T04:29:34.994Z,101410.28
2023-04-28T04:32:02.438Z,101400.84
2023-04-28T04:34:30.409Z,101401.88
2023-04-28T04:36:58.261Z,101403.13
2023-04-28T04:39:26.431Z,101401.69
2023-04-28T04:41:54.610Z,101402.00
2023-04-28T04:44:22.817Z,101401.50
2023-04-28T04:46:50.798Z,101408.66
2023-04-28T04:49:19.389Z,101400.31
2023-04-28T04:51:47.395Z,101391.91
2023-04-28T04:54:15.186Z,101391.44
2023-04-28T04:56:42.859Z,101397.53
2023-04-28T04:59:11.332Z,101402.22
2023-04-28T05:01:39.343Z,101404.28
2023-04-28T05:04:07.424Z,101405.28
2023-04-28T05:06:35.593Z,101404.66
2023-04-28T05:09:03.556Z,101414.41
2023-04-28T05:11:31.449Z,101405.13
2023-04-28T05:13:59.357Z,101407.03
2023-04-28T05:16:26.553Z,101409.13
2023-04-28T05:18:54.068Z,101405.94
2023-04-28T05:21:21.986Z,101410.50
2023-04-28T05:23:50.043Z,101411.66
2023-04-28T05:26:17.548Z,101412.53
2023-04-28T05:28:45.276Z,101416.19
2023-04-28T05:31:13.238Z,101424.88
2023-04-28T05:33:41.304Z,101426.97
2023-04-28T05:36:11.962Z,101430.75
2023-04-28T05:38:39.645Z,101426.91
2023-04-28T05:41:07.479Z,101425.59
2023-04-28T05:43:35.269Z,101420.84
2023-04-28T05:46:02.366Z,101426.59
2023-04-28T05:48:30.298Z,101428.03
2023-04-28T05:50:58.173Z,101436.00
2023-04-28T05:53:25.952Z,101428.44
2023-04-28T05:55:53.044Z,101427.16
2023-04-28T05:58:20.811Z,101421.44
2023-04-28T06:00:48.364Z,101424.38
2023-04-28T06:03:20.115Z,101424.63
2023-04-28T06:05:48.380Z,101426.91
2023-04-28T06:08:16.161Z,101432.38
2023-04-28T06:10:44.384Z,101435.19
2023-04-28T06:13:13.955Z,101434.59
2023-04-28T06:15:42.763Z,101439.03
2023-04-28T06:18:11.252Z,101441.84
2023-04-28T06:20:39.226Z,101454.84
2023-04-28T06:23:06.973Z,101455.75
2023-04-28T06:25:34.904Z,101444.72
2023-04-28T06:28:03.383Z,101452.59
2023-04-28T06:30:34.274Z,101450.06
2023-04-28T06:33:02.392Z,101445.09
2023-04-28T06:35:29.681Z,101439.75
2023-04-28T06:37:57.649Z,101433.59
2023-04-28T06:40:25.365Z,101432.97
2023-04-28T06:42:53.305Z,101433.16
2023-04-28T06:45:21.246Z,101435.13
2023-04-28T06:47:48.780Z,101441.41
2023-04-28T06:50:16.370Z,101443.41
2023-04-28T06:52:44.210Z,101451.44
2023-04-28T06:55:15.147Z,101455.94
2023-04-28T06:57:43.272Z,101455.97
2023-04-28T07:00:12.825Z,101461.97
2023-04-28T07:02:40.708Z,101461.34
2023-04-28T07:05:10.023Z,101455.59
2023-04-28T07:07:39.063Z,101455.16
2023-04-28T07:10:07.719Z,101447.84
2023-04-28T07:12:35.638Z,101441.34
2023-04-28T07:15:03.552Z,101440.09
2023-04-28T07:17:31.133Z,101435.28
2023-04-28T07:19:58.989Z,101429.41
2023-04-28T07:22:26.879Z,101433.06
2023-04-28T07:24:55.112Z,101438.38
2023-04-28T07:27:22.596Z,101435.09
2023-04-28T07:29:50.030Z,101427.50
2023-04-28T07:32:17.713Z,101430.91
2023-04-28T07:34:52.114Z,101433.72
2023-04-28T07:37:20.610Z,101435.75
2023-04-28T07:39:48.273Z,101441.38
2023-04-28T07:42:16.209Z,101436.31
2023-04-28T07:44:44.172Z,101443.50
2023-04-28T07:47:12.030Z,101450.53
2023-04-28T07:49:40.074Z,101443.78
2023-04-28T07:52:08.079Z,101440.44
2023-04-28T07:54:37.099Z,101433.56
2023-04-28T07:57:06.169Z,101438.09
2023-04-28T07:59:36.705Z,101436.53
2023-04-28T08:02:04.224Z,101434.03
2023-04-28T08:04:33.995Z,101434.06
2023-04-28T08:07:04.520Z,101438.47
2023-04-28T08:09:36.793Z,101447.25
2023-04-28T08:12:05.156Z,101446.38
2023-04-28T08:14:32.994Z,101450.88
2023-04-28T08:17:01.233Z,101443.13
2023-04-28T08:19:29.814Z,101443.91
2023-04-28T08:21:57.404Z,101438.63
2023-04-28T08:24:25.524Z,101433.47
2023-04-28T08:26:53.515Z,101435.25
2023-04-28T08:29:20.947Z,101427.47
2023-04-28T08:31:49.053Z,101439.81
2023-04-28T08:34:17.111Z,101436.47
2023-04-28T08:36:46.078Z,101420.81
2023-04-28T08:39:14.057Z,101419.22
2023-04-28T08:41:45.976Z,101421.00
2023-04-28T08:44:13.555Z,101426.25
2023-04-28T08:46:44.759Z,101415.81
2023-04-28T08:49:19.158Z,101414.06
2023-04-28T08:52:13.113Z,101406.22
2023-04-28T08:54:43.357Z,101419.31
2023-04-28T08:57:11.138Z,101416.78
2023-04-28T09:00:01.749Z,101413.38
2023-04-28T09:02:29.545Z,101422.16
2023-04-28T09:04:57.062Z,101405.66
2023-04-28T09:07:24.853Z,101411.72
2023-04-28T09:09:52.096Z,101407.41
2023-04-28T09:12:20.109Z,101399.63
2023-04-28T09:14:51.540Z,101404.97
2023-04-28T09:17:19.472Z,101414.56
2023-04-28T09:19:46.990Z,101411.94
2023-04-28T09:22:26.464Z,101409.31
2023-04-28T09:24:55.672Z,101411.88
2023-04-28T09:27:29.578Z,101408.44
2023-04-28T09:29:57.337Z,101406.75
2023-04-28T09:32:27.305Z,101398.09
2023-04-28T09:34:57.315Z,101396.34
2023-04-28T09:37:31.278Z,101403.34
2023-04-28T09:40:04.312Z,101405.94
2023-04-28T09:42:34.915Z,101409.41
2023-04-28T09:45:22.174Z,101422.47
2023-04-28T09:47:49.965Z,101419.00
2023-04-28T09:50:18.431Z,101421.63
2023-04-28T09:52:49.245Z,101414.66
2023-04-28T09:55:17.806Z,101411.16
2023-04-28T09:57:45.466Z,101406.81
2023-04-28T10:00:15.295Z,101402.47
2023-04-28T10:02:44.070Z,101403.38
2023-04-28T10:05:11.887Z,101396.41
2023-04-28T10:07:40.291Z,101390.28
2023-04-28T10:10:08.055Z,101390.31
2023-04-28T10:12:35.303Z,101381.53
2023-04-28T10:15:02.797Z,101380.66
2023-04-28T10:17:30.304Z,101376.28
2023-04-28T10:19:57.633Z,101373.66
2023-04-28T10:22:49.225Z,101368.41
2023-04-28T10:25:27.561Z,101370.13
2023-04-28T10:27:55.459Z,101357.03
2023-04-28T10:30:28.314Z,101347.38
2023-04-28T10:33:14.805Z,101350.81
2023-04-28T10:35:45.755Z,101342.03
2023-04-28T10:38:19.525Z,101336.78
2023-04-28T10:40:46.882Z,101335.84
2023-04-28T10:43:27.088Z,101339.22
2023-04-28T10:45:56.744Z,101324.38
2023-04-28T10:48:45.260Z,101330.50
2023-04-28T10:51:13.220Z,101328.69
2023-04-28T10:53:44.156Z,101320.81
2023-04-28T10:56:15.551Z,101313.66
2023-04-28T10:58:43.746Z,101314.47
2023-04-28T11:01:24.456Z,101319.56
2023-04-28T11:03:54.986Z,101320.66
2023-04-28T11:06:26.842Z,101315.47
2023-04-28T11:08:58.028Z,101311.13
2023-04-28T11:11:39.123Z,101317.28
2023-04-28T11:14:18.461Z,101314.56
2023-04-28T11:16:54.207Z,101322.38
2023-04-28T11:19:24.578Z,101315.97
2023-04-28T11:21:52.447Z,101320.38
2023-04-28T11:24:20.060Z,101325.78
2023-04-28T11:26:47.258Z,101324.28
2023-04-28T11:29:15.576Z,101312.03
2023-04-28T11:31:49.697Z,101313.75
2023-04-28T11:34:20.418Z,101311.88
2023-04-28T11:36:48.430Z,101307.41
2023-04-28T11:39:16.439Z,101304.63
2023-04-28T11:42:03.400Z,101294.91
2023-04-28T11:44:31.149Z,101299.81
2023-04-28T11:47:03.280Z,101294.59
2023-04-28T11:49:33.244Z,101284.91
2023-04-28T11:52:07.236Z,101283.44
2023-04-28T11:54:35.207Z,101291.44
2023-04-28T11:57:04.945Z,101286.28
2023-04-28T11:59:34.089Z,101281.94
2023-04-28T12:02:07.554Z,101285.69
2023-04-28T12:04:57.705Z,101278.88
2023-04-28T12:07:25.758Z,101270.16
2023-04-28T12:10:19.055Z,101269.47
2023-04-28T12:15:19.518Z,101264.91
2023-04-28T12:17:48.722Z,101255.75
2023-04-28T12:20:37.436Z,101250.31
2023-04-28T12:23:05.930Z,101249.41
2023-04-28T12:25:35.056Z,101246.75
2023-04-28T12:28:07.621Z,101254.56
2023-04-28T12:30:39.279Z,101247.22
2023-04-28T12:33:06.915Z,101243.75
2023-04-28T12:35:34.817Z,101243.84
2023-04-28T12:38:02.851Z,101236.88
2023-04-28T12:40:30.941Z,101238.25
2023-04-28T12:42:58.445Z,101230.91
2023-04-28T12:45:26.288Z,101228.50
2023-04-28T12:47:53.820Z,101220.25
2023-04-28T12:50:21.563Z,101221.63
2023-04-28T12:52:49.263Z,101216.00
2023-04-28T12:55:17.465Z,101217.38
2023-04-28T12:57:45.142Z,101212.13
2023-04-28T13:00:16.719Z,101209.53
2023-04-28T13:02:45.677Z,101200.16
2023-04-28T13:05:14.953Z,101198.22
2023-04-28T13:07:42.981Z,101194.53
2023-04-28T13:10:11.446Z,101184.91
2023-04-28T13:12:39.867Z,101184.59
2023-04-28T13:15:10.096Z,101176.84
2023-04-28T13:17:37.941Z,101188.94
2023-04-28T13:20:08.685Z,101174.03
2023-04-28T13:22:36.478Z,101172.59
2023-04-28T13:25:04.882Z,101163.00
2023-04-28T13:27:33.359Z,101169.25
2023-04-28T13:30:00.950Z,101164.72
2023-04-28T13:32:29.741Z,101157.97
2023-04-28T13:34:57.682Z,101154.38
2023-04-28T13:37:25.595Z,101155.31
2023-04-28T13:39:53.520Z,101149.84
2023-04-28T13:42:21.618Z,101150.38
2023-04-28T13:44:49.343Z,101147.84
2023-04-28T13:47:17.280Z,101147.06
2023-04-28T13:49:45.228Z,101138.31
2023-04-28T13:52:19.522Z,101133.84
2023-04-28T13:54:47.850Z,101131.13
2023-04-28T13:57:15.472Z,101125.72
2023-04-28T13:59:42.590Z,101120.19
2023-04-28T14:02:11.667Z,101124.88
2023-04-28T14:04:39.874Z,101111.81
2023-04-28T14:07:08.110Z,101104.53
2023-04-28T14:09:38.293Z,101094.81
2023-04-28T14:12:06.290Z,101100.88
2023-04-28T14:14:34.854Z,101100.91
2023-04-28T14:17:02.276Z,101089.41
2023-04-28T14:19:30.014Z,101088.06
2023-04-28T14:21:57.711Z,101079.78
2023-04-28T14:24:25.691Z,101069.47
2023-04-28T14:26:53.515Z,101081.50
2023-04-28T14:29:20.956Z,101075.97
2023-04-28T14:31:48.864Z,101074.72
2023-04-28T14:34:17.050Z,101066.13
2023-04-28T14:36:44.971Z,101050.66
2023-04-28T14:39:12.953Z,101048.94
2023-04-28T14:41:40.818Z,101053.66
2023-04-28T14:44:08.462Z,101053.94
2023-04-28T14:46:36.818Z,101045.75
2023-04-28T14:49:04.426Z,101053.31
2023-04-28T14:51:32.412Z,101048.34
2023-04-28T14:54:00.297Z,101048.22
2023-04-28T14:56:28.066Z,101053.06
2023-04-28T14:58:55.983Z,101061.22
2023-04-28T15:01:23.712Z,101046.66
2023-04-28T15:03:51.749Z,101045.56
2023-04-28T15:06:19.669Z,101045.78
2023-04-28T15:08:47.586Z,101049.16
2023-04-28T15:11:15.043Z,101047.50
2023-04-28T15:13:43.181Z,101055.69
2023-04-28T15:16:10.922Z,101056.28
2023-04-28T15:18:38.417Z,101054.28
2023-04-28T15:21:06.365Z,101053.44
2023-04-28T15:23:35.274Z,101048.69
2023-04-28T15:26:03.741Z,101047.75
2023-04-28T15:28:31.752Z,101042.84
2023-04-28T15:30:59.330Z,101029.03
2023-04-28T15:33:26.550Z,101032.41
2023-04-28T15:35:54.101Z,101035.41
2023-04-28T15:38:21.980Z,101019.81
2023-04-28T15:40:49.819Z,101014.81
2023-04-28T15:43:17.708Z,101013.88
2023-04-28T15:45:47.045Z,101019.66
2023-04-28T15:48:15.435Z,101014.88
2023-04-28T15:50:43.582Z,101028.63
2023-04-28T15:53:11.181Z,101019.28
2023-04-28T15:55:39.118Z,101011.78
2023-04-28T15:58:08.066Z,101005.50
2023-04-28T16:00:41.439Z,101005.09
2023-04-28T16:03:09.114Z,101003.34
2023-04-28T16:05:38.003Z,101005.28
2023-04-28T16:08:06.016Z,101004.88
2023-04-28T16:10:33.817Z,101001.88
2023-04-28T16:13:01.774Z,100995.88
2023-04-28T16:15:29.497Z,101001.34
2023-04-28T16:17:57.561Z,101000.44
2023-04-28T16:20:25.802Z,101003.59
2023-04-28T16:22:53.381Z,100993.44
2023-04-28T16:25:21.216Z,100985.38
2023-04-28T16:27:49.808Z,100988.75
2023-04-28T16:30:17.981Z,100987.56
2023-04-28T16:32:45.808Z,100980.19
2023-04-28T16:35:14.804Z,100985.94
2023-04-28T16:37:43.649Z,100983.38
2023-04-28T16:40:12.747Z,100981.94
2023-04-28T16:42:40.664Z,100978.38
2023-04-28T16:45:10.985Z,100974.06
2023-04-28T16:47:39.333Z,100968.59
2023-04-28T16:50:10.625Z,100972.50
2023-04-28T16:52:38.345Z,100968.09
2023-04-28T16:55:08.792Z,100973.03
2023-04-28T16:57:36.734Z,100965.63
2023-04-28T17:00:06.909Z,100971.97
2023-04-28T17:02:34.468Z,100958.88
2023-04-28T17:05:02.167Z,100960.97
2023-04-28T17:07:30.079Z,100961.38
2023-04-28T17:09:58.256Z,100966.16
2023-04-28T17:12:28.604Z,100957.91
2023-04-28T17:14:56.230Z,100967.00
2023-04-28T17:17:23.704Z,100969.94
2023-04-28T17:19:51.675Z,100972.84
2023-04-28T17:22:19.364Z,100966.75
2023-04-28T17:24:47.251Z,100965.53
2023-04-28T17:27:14.765Z,100959.34
2023-04-28T17:29:44.960Z,100964.47
2023-04-28T17:32:12.493Z,100967.03
2023-04-28T17:34:40.041Z,100963.25
2023-04-28T17:37:08.676Z,100973.16
2023-04-28T17:39:36.781Z,100964.72
2023-04-28T17:42:05.348Z,100957.09
2023-04-28T17:44:33.285Z,100964.38
2023-04-28T17:47:02.487Z,100959.44
2023-04-28T17:49:30.620Z,100963.22
2023-04-28T17:52:01.693Z,100968.63
2023-04-28T17:54:29.465Z,100972.44
2023-04-28T17:56:57.198Z,100965.69
2023-04-28T17:59:25.117Z,100961.47
2023-04-28T18:01:56.375Z,100962.41
2023-04-28T18:04:23.964Z,100963.44
2023-04-28T18:06:51.429Z,100961.88
2023-04-28T18:09:19.732Z,100961.28
2023-04-28T18:11:47.186Z,100961.50
2023-04-28T18:14:15.524Z,100960.72
2023-04-28T18:16:43.387Z,100970.44
2023-04-28T18:19:12.050Z,100971.34
2023-04-28T18:21:40.025Z,100974.03
2023-04-28T18:24:07.565Z,100968.03
2023-04-28T18:26:35.486Z,100966.41
2023-04-28T18:29:02.995Z,100963.00
2023-04-28T18:31:30.701Z,100963.97
2023-04-28T18:33:59.551Z,100964.97
2023-04-28T18:36:27.837Z,100958.91
2023-04-28T18:38:56.057Z,100959.84
2023-04-28T18:41:23.787Z,100972.97
2023-04-28T18:43:51.903Z,100976.53
2023-04-28T18:46:20.876Z,100986.13
2023-04-28T18:48:48.884Z,100992.22
2023-04-28T18:51:16.484Z,100987.00
2023-04-28T18:53:43.960Z,100992.25
2023-04-28T18:56:11.990Z,100995.78
2023-04-28T18:58:41.494Z,101003.66
2023-04-28T19:01:18.496Z,100997.63
2023-04-28T19:03:49.398Z,101003.69
2023-04-28T19:06:17.674Z,100995.03
2023-04-28T19:08:45.550Z,101008.06
2023-04-28T19:11:13.309Z,101005.44
2023-04-28T19:13:40.896Z,101010.69
2023-04-28T19:16:08.911Z,101008.94
2023-04-28T19:18:37.154Z,101014.16
2023-04-28T19:21:05.338Z,101008.06
2023-04-28T19:23:33.762Z,101015.91
2023-04-28T19:26:02.211Z,101018.50
2023-04-28T19:28:29.905Z,101019.38
2023-04-28T19:31:06.532Z,101028.06
2023-04-28T19:33:33.414Z,101030.69
2023-04-28T19:36:01.294Z,101028.88
2023-04-28T19:38:29.598Z,101024.53
2023-04-28T19:41:03.125Z,101033.22
2023-04-28T19:43:31.985Z,101029.69
2023-04-28T19:45:59.446Z,101028.81
2023-04-28T19:48:27.148Z,101033.97
2023-04-28T19:50:56.413Z,101042.66
2023-04-28T19:53:23.974Z,101045.25
2023-04-28T19:55:51.448Z,101041.75
2023-04-28T19:58:22.984Z,101047.78
2023-04-28T20:00:50.838Z,101053.00
2023-04-28T20:03:18.507Z,101059.03
2023-04-28T20:05:47.547Z,101059.84
2023-04-28T20:08:14.971Z,101065.88
2023-04-28T20:10:42.872Z,101059.78
2023-04-28T20:13:10.894Z,101050.16
2023-04-28T20:15:39.090Z,101048.34
2023-04-28T20:18:07.189Z,101055.31
2023-04-28T20:20:34.834Z,101043.16
2023-04-28T20:23:02.833Z,101050.06
2023-04-28T20:25:30.705Z,101056.09
2023-04-28T20:27:58.171Z,101052.56
2023-04-28T20:30:27.724Z,101038.66
2023-04-28T20:32:56.171Z,101035.19
2023-04-28T20:35:24.178Z,101036.03
2023-04-28T20:37:53.024Z,101033.41
2023-04-28T20:40:20.654Z,101030.75
2023-04-28T20:42:48.108Z,101031.59
2023-04-28T20:45:16.466Z,101029.84
2023-04-28T20:47:44.644Z,101040.25
2023-04-28T20:50:13.303Z,101038.47
2023-04-28T20:52:40.796Z,101033.22
2023-04-28T20:55:11.473Z,101041.91
2023-04-28T20:57:39.558Z,101039.28
2023-04-28T21:00:11.658Z,101037.50
2023-04-28T21:02:39.270Z,101035.81
2023-04-28T21:05:07.507Z,101031.47
2023-04-28T21:07:35.093Z,101033.19
2023-04-28T21:10:03.200Z,101027.97
2023-04-28T21:12:31.369Z,101021.88
2023-04-28T21:15:04.565Z,101019.28
2023-04-28T21:17:35.959Z,101021.84
2023-04-28T21:20:03.591Z,101024.31
2023-04-28T21:22:31.411Z,101031.34
2023-04-28T21:24:59.230Z,101027.78
2023-04-28T21:27:27.064Z,101032.84
2023-04-28T21:29:54.965Z,101035.38
2023-04-28T21:32:22.562Z,101033.59
2023-04-28T21:34:50.471Z,101025.78
2023-04-28T21:37:23.621Z,101024.00
2023-04-28T21:39:51.577Z,101013.50
2023-04-28T21:42:19.409Z,101029.06
2023-04-28T21:44:47.366Z,101034.19
2023-04-28T21:47:16.660Z,101019.44
2023-04-28T21:49:44.312Z,101008.16
2023-04-28T21:52:12.001Z,101007.19
2023-04-28T21:54:47.522Z,101014.13
2023-04-28T21:57:15.854Z,101026.13
2023-04-28T21:59:44.077Z,101033.06
2023-04-28T22:02:14.686Z,101033.84
2023-04-28T22:04:41.997Z,101037.84
2023-04-28T22:07:09.764Z,101045.31
2023-04-28T22:09:37.281Z,101049.22
2023-04-28T22:12:05.373Z,101046.28
2023-04-28T22:17:03.873Z,101020.34
2023-04-28T22:19:32.640Z,101025.56
2023-04-28T22:22:00.453Z,101030.84
2023-04-28T22:24:34.133Z,101044.66
2023-04-28T22:27:01.479Z,101044.56
2023-04-28T22:29:29.715Z,101036.59
2023-04-28T22:31:58.713Z,101044.25
2023-04-28T22:34:26.741Z,101043.28
2023-04-28T22:36:54.861Z,101047.00
2023-04-28T22:39:24.996Z,101047.97
2023-04-28T22:41:52.629Z,101045.06
2023-04-28T22:44:22.897Z,101044.94
2023-04-28T22:46:50.304Z,101043.22
2023-04-28T22:49:25.915Z,101042.06
2023-04-28T22:51:53.728Z,101036.66
2023-04-28T22:54:24.723Z,101034.81
2023-04-28T22:56:53.369Z,101020.25
2023-04-28T22:59:22.610Z,101016.94
2023-04-28T23:01:51.137Z,101016.22
2023-04-28T23:04:21.225Z,101010.34
2023-04-28T23:06:56.454Z,101009.59
2023-04-28T23:09:23.898Z,101014.94
2023-04-28T23:11:51.839Z,101014.22
2023-04-28T23:14:19.353Z,101013.28
2023-04-28T23:16:47.249Z,101008.88
2023-04-28T23:19:14.800Z,101010.53
2023-04-28T23:21:42.596Z,101008.78
2023-04-28T23:24:11.202Z,101014.00
2023-04-28T23:26:39.106Z,101016.69
2023-04-28T23:29:07.657Z,101011.56
2023-04-28T23:31:41.398Z,101005.59
2023-04-28T23:34:09.466Z,101003.00
2023-04-28T23:36:37.796Z,100997.72
2023-04-28T23:39:05.694Z,101008.88
2023-04-28T23:41:33.540Z,101009.47
2023-04-28T23:44:01.328Z,100993.56
2023-04-28T23:46:29.535Z,100991.72
2023-04-28T23:48:57.544Z,101002.16
2023-04-28T23:51:25.581Z,100997.81
2023-04-28T23:53:53.156Z,100983.88
2023-04-28T23:56:24.060Z,100978.50
2023-04-28T23:58:52.039Z,100963.53
